Sunday, October 21, 2018, 1:01 PM EDT
Back to Local

KADW, Camp Springs / Andrews Air Force Base

Location: Andrews Air Force Base, MD, United States Lat: 38.817
Local Time: 1:01 PM EDT (17:01 GMT) Lon: -76.85
Time Zone: US/Eastern Elev: 282 ft

Show me the last for .
Show Decoded

2018-10-21 11:56 METAR KADW 211556Z AUTO 32020G27KT 10SM SCT050 11/M02 A3011 RMK AO2 PK WND
                 35032/1457 SLP204 T01061018 $ =
2018-10-21 10:56 METAR KADW 211456Z AUTO 32013G27KT 10SM SCT050 09/M02 A3010 RMK AO2 PK WND
                 31036/28 SLP200 T00941019 52029 $ =
2018-10-21 09:56 METAR KADW 211356Z AUTO 31024G31KT 10SM CLR 09/M03 A3008 RMK AO2 PK WND 31034/40
                 SLP193 T00901026 $ =
2018-10-21 08:56 METAR KADW 211256Z AUTO 34018G28KT 10SM CLR 08/M01 A3004 RMK AO2 PK WND 32030/44
                 SLP180 T00831015 $ =
2018-10-21 07:56 METAR KADW 211156Z AUTO 32019G24KT 10SM FEW039 SCT065 08/00 A3001 RMK AO2 PK WND
                 33029/46 SLP169 70002 T00761001 10107 20076 $ =
2018-10-21 06:56 METAR KADW 211056Z COR 31022G28KT 10SM SCT041 08/01 RMK AO2 PK WND 30034/16
                 SLPNO RVRNO $ COR 1143 =
2018-10-21 05:56 METAR KADW 210956Z AUTO 31019G31KT 10SM OVC032 08/01 A2988 RMK AO2 PK WND
                 29035/17 SLP125 T00820014 $ =
2018-10-21 04:56 METAR KADW 210856Z AUTO 28016G22KT 10SM BKN041 09/01 A2983 RMK AO2 PK WND
                 29030/31 SLP108 T00880005 52022 $ =
2018-10-21 03:56 METAR KADW 210756Z AUTO 30013G23KT 10SM FEW045 BKN120 10/01 A2981 RMK AO2 PK WND
                 31028/00 SLP101 T00960007 $ =
2018-10-21 02:56 METAR KADW 210656Z AUTO 29013G22KT 10SM FEW043 10/02 A2978 RMK AO2 SLP091
                 T01030019 $ =
2018-10-21 01:56 METAR KADW 210556Z AUTO 30008KT 10SM CLR 11/04 A2976 RMK AO2 PK WND 29029/0456
                 DZE00 SLP084 P0000 60001 T01080036 10151 20108 51007 $ =
2018-10-21 01:00 METAR KADW 210500Z AUTO 29014G27KT 10SM SCT095 11/05 A2976 RMK AO2 DZE00 SLP084
                 $ =
2018-10-21 00:56 METAR KADW 210456Z AUTO 29023G27KT 10SM -DZ BKN095 11/05 A2976 RMK AO2 DZB51
                 SLP084 P0001 T01130047 401980108 $ =
2018-10-21 00:51 METAR KADW 210451Z AUTO 29019G25KT 10SM -DZ BKN095 11/05 A2976 RMK AO2 DZB51
                 SLP084 $ =
2018-10-20 23:56 METAR KADW 210356Z AUTO 29008KT 10SM FEW034 SCT090 11/05 A2975 RMK AO2
                 RAB13E40DZB40E41 SLP081 P0000 T01090052 $ =
2018-10-20 23:41 METAR KADW 210341Z AUTO 31007KT 10SM FEW034 BKN060 BKN085 11/06 A2974 RMK AO2
                 RAB13E40DZB40E41 SLP078 $ =
2018-10-20 23:13 METAR KADW 210313Z AUTO 32015KT 10SM -RA OVC070 12/04 A2974 RMK AO2 RAB13 SLP078
                 $ =
2018-10-20 22:56 METAR KADW 210256Z AUTO 31013G27KT 10SM BKN075 OVC090 12/05 A2974 RMK AO2 PK WND
                 31042/24 SLP078 60000 T01190051 53023 $ =
2018-10-20 21:56 METAR KADW 210156Z AUTO 28009KT 10SM CLR 14/06 A2969 RMK AO2 SLP060 T01360060 $
                 =
2018-10-20 20:56 METAR KADW 210056Z AUTO 26007KT 10SM CLR 15/09 A2966 RMK AO2 RAE01 SLP050 P0000
                 T01500087 $ =
2018-10-20 20:01 METAR KADW 210001Z AUTO 29003KT 10SM FEW048 FEW060 BKN080 15/13 A2967 RMK AO2
                 RAE01 SLP054 $ =
2018-10-20 19:56 METAR KADW 202356Z AUTO 29003KT 10SM -RA FEW048 FEW060 BKN080 BKN100 15/12 A2967
                 RMK AO2 DZB04E05RAB05E32RAB52 SLP054 P0001 60001 T01510124 10198 20140 53004 $ =
2018-10-20 19:52 METAR KADW 202352Z AUTO 30003KT 10SM -RA FEW046 SCT070 BKN080 BKN100 15/12 A2967
                 RMK AO2 DZB04E05RAB05E32RAB52 SLP054 $ =
2018-10-20 19:32 METAR KADW 202332Z AUTO 24005KT 10SM FEW022 FEW043 BKN065 BKN100 15/13 A2967 RMK
                 AO2 DZB04E05RAB05E32 SLP054 $ =
2018-10-20 19:04 METAR KADW 202304Z AUTO 00000KT 10SM -DZ BKN085 14/12 A2967 RMK AO2 DZB04 SLP054
                 $ =
2018-10-20 18:56 METAR KADW 202256Z AUTO 00000KT 10SM FEW049 SCT090 14/12 A2966 RMK AO2 SLP050
                 T01410118 $ =
2018-10-20 17:56 METAR KADW 202156Z AUTO 22004KT 10SM SCT070 17/12 A2966 RMK AO2 SLP050 T01670116
                 $ =
2018-10-20 16:56 METAR KADW 202056Z AUTO 21005KT 10SM BKN070 18/11 A2966 RMK AO2 SLP050 T01760114
                 57026 $ =
2018-10-20 15:56 METAR KADW 201956Z AUTO 24005KT 10SM SCT039 BKN050 BKN065 18/10 A2968 RMK AO2
                 SLP057 T01820100 $ =
2018-10-20 14:56 METAR KADW 201856Z AUTO 00000KT 10SM CLR 19/11 A2971 RMK AO2 SLP067 T01920107 $
                 =
2018-10-20 13:56 METAR KADW 201756Z AUTO 26005KT 10SM CLR 18/11 A2974 RMK AO2 SLP077 T01820108
                 10182 20130 57024 $ =

Support USWX by starting your Amazon purchase here.